sensor_id;sensor_type;location;lat;lon;timestamp;P1;durP1;ratioP1;P2;durP2;ratioP2
3875;SDS011;1953;51.222;6.624;2023-05-07T00:01:10;13.70;;;9.73;;
3875;SDS011;1953;51.222;6.624;2023-05-07T00:05:53;10.83;;;8.87;;
3875;SDS011;1953;51.222;6.624;2023-05-07T00:11:30;13.03;;;9.67;;
3875;SDS011;1953;51.222;6.624;2023-05-07T00:16:12;11.70;;;9.67;;
3875;SDS011;1953;51.222;6.624;2023-05-07T00:20:55;14.37;;;9.60;;
3875;SDS011;1953;51.222;6.624;2023-05-07T00:25:38;10.73;;;9.63;;
3875;SDS011;1953;51.222;6.624;2023-05-07T00:30:22;11.73;;;9.30;;
3875;SDS011;1953;51.222;6.624;2023-05-07T00:35:05;11.30;;;9.33;;
3875;SDS011;1953;51.222;6.624;2023-05-07T00:39:49;10.70;;;9.33;;
3875;SDS011;1953;51.222;6.624;2023-05-07T00:44:32;14.00;;;10.33;;
3875;SDS011;1953;51.222;6.624;2023-05-07T00:49:15;14.23;;;10.03;;
3875;SDS011;1953;51.222;6.624;2023-05-07T00:53:59;15.97;;;10.63;;
3875;SDS011;1953;51.222;6.624;2023-05-07T00:58:43;13.40;;;9.87;;
3875;SDS011;1953;51.222;6.624;2023-05-07T01:03:26;11.10;;;8.87;;
3875;SDS011;1953;51.222;6.624;2023-05-07T01:08:10;12.87;;;10.20;;
3875;SDS011;1953;51.222;6.624;2023-05-07T01:12:52;11.87;;;9.00;;
3875;SDS011;1953;51.222;6.624;2023-05-07T01:17:36;12.90;;;8.60;;
3875;SDS011;1953;51.222;6.624;2023-05-07T01:22:26;10.70;;;8.50;;
3875;SDS011;1953;51.222;6.624;2023-05-07T01:27:12;10.77;;;8.10;;
3875;SDS011;1953;51.222;6.624;2023-05-07T01:31:55;9.67;;;8.13;;
3875;SDS011;1953;51.222;6.624;2023-05-07T01:36:39;11.50;;;8.63;;
3875;SDS011;1953;51.222;6.624;2023-05-07T01:41:26;23.13;;;8.30;;
3875;SDS011;1953;51.222;6.624;2023-05-07T01:46:08;9.63;;;8.03;;
3875;SDS011;1953;51.222;6.624;2023-05-07T01:50:52;10.07;;;7.67;;
3875;SDS011;1953;51.222;6.624;2023-05-07T01:55:35;12.60;;;8.27;;
3875;SDS011;1953;51.222;6.624;2023-05-07T02:00:20;9.73;;;8.00;;
3875;SDS011;1953;51.222;6.624;2023-05-07T02:05:03;11.83;;;8.30;;
3875;SDS011;1953;51.222;6.624;2023-05-07T02:09:46;13.13;;;8.57;;
3875;SDS011;1953;51.222;6.624;2023-05-07T02:14:29;10.13;;;8.47;;
3875;SDS011;1953;51.222;6.624;2023-05-07T02:19:13;11.60;;;9.10;;
3875;SDS011;1953;51.222;6.624;2023-05-07T02:23:55;9.33;;;8.40;;
3875;SDS011;1953;51.222;6.624;2023-05-07T02:28:38;15.40;;;8.27;;
3875;SDS011;1953;51.222;6.624;2023-05-07T02:33:26;10.47;;;8.80;;
3875;SDS011;1953;51.222;6.624;2023-05-07T02:38:10;11.67;;;7.67;;
3875;SDS011;1953;51.222;6.624;2023-05-07T02:42:53;11.77;;;8.20;;
3875;SDS011;1953;51.222;6.624;2023-05-07T02:47:35;10.40;;;7.90;;
3875;SDS011;1953;51.222;6.624;2023-05-07T02:52:18;11.63;;;7.70;;
3875;SDS011;1953;51.222;6.624;2023-05-07T02:57:02;9.47;;;8.40;;
3875;SDS011;1953;51.222;6.624;2023-05-07T03:01:44;13.13;;;8.50;;
3875;SDS011;1953;51.222;6.624;2023-05-07T03:06:27;9.33;;;8.40;;
3875;SDS011;1953;51.222;6.624;2023-05-07T03:11:10;11.00;;;7.87;;
3875;SDS011;1953;51.222;6.624;2023-05-07T03:15:54;9.10;;;8.20;;
3875;SDS011;1953;51.222;6.624;2023-05-07T03:20:37;8.13;;;7.33;;
3875;SDS011;1953;51.222;6.624;2023-05-07T03:25:20;9.93;;;8.00;;
3875;SDS011;1953;51.222;6.624;2023-05-07T03:30:03;9.77;;;7.47;;
3875;SDS011;1953;51.222;6.624;2023-05-07T03:34:48;8.80;;;7.80;;
3875;SDS011;1953;51.222;6.624;2023-05-07T03:39:31;11.10;;;7.90;;
3875;SDS011;1953;51.222;6.624;2023-05-07T03:44:13;10.20;;;7.03;;
3875;SDS011;1953;51.222;6.624;2023-05-07T03:48:56;10.30;;;7.40;;
3875;SDS011;1953;51.222;6.624;2023-05-07T03:53:40;8.53;;;7.57;;
3875;SDS011;1953;51.222;6.624;2023-05-07T03:58:22;11.43;;;7.23;;
3875;SDS011;1953;51.222;6.624;2023-05-07T04:03:05;8.20;;;7.23;;
3875;SDS011;1953;51.222;6.624;2023-05-07T04:07:47;9.50;;;7.40;;
3875;SDS011;1953;51.222;6.624;2023-05-07T04:12:31;8.73;;;7.83;;
3875;SDS011;1953;51.222;6.624;2023-05-07T04:17:14;8.57;;;7.57;;
3875;SDS011;1953;51.222;6.624;2023-05-07T04:21:56;9.67;;;7.73;;
3875;SDS011;1953;51.222;6.624;2023-05-07T04:26:39;11.53;;;8.27;;
3875;SDS011;1953;51.222;6.624;2023-05-07T04:31:23;8.17;;;7.37;;
3875;SDS011;1953;51.222;6.624;2023-05-07T04:36:06;8.77;;;7.83;;
3875;SDS011;1953;51.222;6.624;2023-05-07T04:40:48;8.87;;;7.80;;
3875;SDS011;1953;51.222;6.624;2023-05-07T04:45:31;12.17;;;7.90;;
3875;SDS011;1953;51.222;6.624;2023-05-07T04:50:15;11.37;;;7.17;;
3875;SDS011;1953;51.222;6.624;2023-05-07T04:55:00;9.57;;;7.30;;
3875;SDS011;1953;51.222;6.624;2023-05-07T04:59:42;9.83;;;7.40;;
3875;SDS011;1953;51.222;6.624;2023-05-07T05:04:25;9.10;;;7.40;;
3875;SDS011;1953;51.222;6.624;2023-05-07T05:09:09;9.27;;;7.80;;
3875;SDS011;1953;51.222;6.624;2023-05-07T05:13:52;9.20;;;6.90;;
3875;SDS011;1953;51.222;6.624;2023-05-07T05:18:34;8.73;;;7.50;;
3875;SDS011;1953;51.222;6.624;2023-05-07T05:23:17;9.07;;;7.23;;
3875;SDS011;1953;51.222;6.624;2023-05-07T05:28:01;8.23;;;6.70;;
3875;SDS011;1953;51.222;6.624;2023-05-07T05:32:44;8.87;;;7.50;;
3875;SDS011;1953;51.222;6.624;2023-05-07T05:37:26;9.20;;;7.50;;
3875;SDS011;1953;51.222;6.624;2023-05-07T05:42:10;7.53;;;6.80;;
3875;SDS011;1953;51.222;6.624;2023-05-07T05:46:54;9.10;;;7.07;;
3875;SDS011;1953;51.222;6.624;2023-05-07T05:51:38;7.27;;;6.43;;
3875;SDS011;1953;51.222;6.624;2023-05-07T05:56:21;7.80;;;6.27;;
3875;SDS011;1953;51.222;6.624;2023-05-07T06:01:03;6.90;;;6.20;;
3875;SDS011;1953;51.222;6.624;2023-05-07T06:05:47;6.70;;;6.10;;
3875;SDS011;1953;51.222;6.624;2023-05-07T06:10:30;12.47;;;6.63;;
3875;SDS011;1953;51.222;6.624;2023-05-07T06:15:12;6.57;;;5.97;;
3875;SDS011;1953;51.222;6.624;2023-05-07T06:19:55;7.87;;;5.60;;
3875;SDS011;1953;51.222;6.624;2023-05-07T06:24:39;9.17;;;6.10;;
3875;SDS011;1953;51.222;6.624;2023-05-07T06:29:22;9.63;;;5.70;;
3875;SDS011;1953;51.222;6.624;2023-05-07T06:34:06;7.77;;;5.63;;
3875;SDS011;1953;51.222;6.624;2023-05-07T06:38:49;7.30;;;6.00;;
3875;SDS011;1953;51.222;6.624;2023-05-07T06:43:33;7.50;;;6.30;;
3875;SDS011;1953;51.222;6.624;2023-05-07T06:48:17;9.50;;;6.43;;
3875;SDS011;1953;51.222;6.624;2023-05-07T06:53:00;7.60;;;5.77;;
3875;SDS011;1953;51.222;6.624;2023-05-07T06:57:42;6.93;;;6.17;;
3875;SDS011;1953;51.222;6.624;2023-05-07T07:02:27;7.23;;;6.20;;
3875;SDS011;1953;51.222;6.624;2023-05-07T07:07:10;9.17;;;6.57;;
3875;SDS011;1953;51.222;6.624;2023-05-07T07:11:52;8.73;;;6.37;;
3875;SDS011;1953;51.222;6.624;2023-05-07T07:16:35;7.80;;;6.03;;
3875;SDS011;1953;51.222;6.624;2023-05-07T07:21:19;6.60;;;5.97;;
3875;SDS011;1953;51.222;6.624;2023-05-07T07:26:01;7.10;;;6.37;;
3875;SDS011;1953;51.222;6.624;2023-05-07T07:30:44;8.03;;;5.13;;
3875;SDS011;1953;51.222;6.624;2023-05-07T07:35:27;5.87;;;5.30;;
3875;SDS011;1953;51.222;6.624;2023-05-07T07:40:11;5.43;;;4.93;;
3875;SDS011;1953;51.222;6.624;2023-05-07T07:44:54;6.23;;;5.63;;
3875;SDS011;1953;51.222;6.624;2023-05-07T07:49:37;5.87;;;5.37;;
3875;SDS011;1953;51.222;6.624;2023-05-07T07:54:20;6.00;;;5.10;;
3875;SDS011;1953;51.222;6.624;2023-05-07T07:59:04;10.00;;;5.93;;
3875;SDS011;1953;51.222;6.624;2023-05-07T08:03:46;5.53;;;5.03;;
3875;SDS011;1953;51.222;6.624;2023-05-07T08:08:29;5.17;;;4.70;;
3875;SDS011;1953;51.222;6.624;2023-05-07T08:13:11;6.93;;;5.43;;
3875;SDS011;1953;51.222;6.624;2023-05-07T08:17:55;5.77;;;5.27;;
3875;SDS011;1953;51.222;6.624;2023-05-07T08:22:38;6.23;;;5.37;;
3875;SDS011;1953;51.222;6.624;2023-05-07T08:27:21;5.70;;;5.20;;
3875;SDS011;1953;51.222;6.624;2023-05-07T08:32:04;6.30;;;5.70;;
3875;SDS011;1953;51.222;6.624;2023-05-07T08:36:47;5.80;;;5.33;;
3875;SDS011;1953;51.222;6.624;2023-05-07T08:41:30;6.00;;;5.50;;
3875;SDS011;1953;51.222;6.624;2023-05-07T08:46:15;5.57;;;5.10;;
3875;SDS011;1953;51.222;6.624;2023-05-07T08:50:59;6.40;;;4.80;;
3875;SDS011;1953;51.222;6.624;2023-05-07T08:55:43;5.33;;;4.93;;
3875;SDS011;1953;51.222;6.624;2023-05-07T09:00:27;6.30;;;5.60;;
3875;SDS011;1953;51.222;6.624;2023-05-07T09:05:10;6.20;;;5.00;;
3875;SDS011;1953;51.222;6.624;2023-05-07T09:09:53;4.97;;;4.17;;
3875;SDS011;1953;51.222;6.624;2023-05-07T09:14:39;5.20;;;4.70;;
3875;SDS011;1953;51.222;6.624;2023-05-07T09:19:24;5.53;;;5.03;;
3875;SDS011;1953;51.222;6.624;2023-05-07T09:24:07;10.30;;;5.50;;
3875;SDS011;1953;51.222;6.624;2023-05-07T09:28:50;6.53;;;5.73;;
3875;SDS011;1953;51.222;6.624;2023-05-07T09:33:34;7.13;;;5.63;;
3875;SDS011;1953;51.222;6.624;2023-05-07T09:38:17;5.43;;;4.90;;
3875;SDS011;1953;51.222;6.624;2023-05-07T09:43:10;8.37;;;5.80;;
3875;SDS011;1953;51.222;6.624;2023-05-07T09:47:55;6.80;;;6.10;;
3875;SDS011;1953;51.222;6.624;2023-05-07T09:52:40;8.03;;;5.63;;
3875;SDS011;1953;51.222;6.624;2023-05-07T09:57:24;6.40;;;5.83;;
3875;SDS011;1953;51.222;6.624;2023-05-07T10:02:09;5.37;;;4.83;;
3875;SDS011;1953;51.222;6.624;2023-05-07T10:06:52;4.80;;;4.40;;
3875;SDS011;1953;51.222;6.624;2023-05-07T10:11:37;4.73;;;4.33;;
3875;SDS011;1953;51.222;6.624;2023-05-07T10:16:20;5.23;;;3.90;;
3875;SDS011;1953;51.222;6.624;2023-05-07T10:21:04;5.50;;;5.00;;
3875;SDS011;1953;51.222;6.624;2023-05-07T10:25:49;6.03;;;4.60;;
3875;SDS011;1953;51.222;6.624;2023-05-07T10:30:35;3.57;;;3.27;;
3875;SDS011;1953;51.222;6.624;2023-05-07T10:35:30;6.20;;;4.47;;
3875;SDS011;1953;51.222;6.624;2023-05-07T10:40:14;3.63;;;3.33;;
3875;SDS011;1953;51.222;6.624;2023-05-07T10:44:58;3.00;;;2.80;;
3875;SDS011;1953;51.222;6.624;2023-05-07T10:55:21;3.27;;;2.97;;
3875;SDS011;1953;51.222;6.624;2023-05-07T11:05:27;2.50;;;2.20;;
3875;SDS011;1953;51.222;6.624;2023-05-07T11:10:10;3.47;;;2.80;;
3875;SDS011;1953;51.222;6.624;2023-05-07T11:14:53;2.87;;;2.40;;
3875;SDS011;1953;51.222;6.624;2023-05-07T11:19:47;2.80;;;2.30;;
3875;SDS011;1953;51.222;6.624;2023-05-07T11:24:33;2.40;;;2.00;;
3875;SDS011;1953;51.222;6.624;2023-05-07T11:29:21;2.27;;;2.13;;
3875;SDS011;1953;51.222;6.624;2023-05-07T11:34:04;1.53;;;1.43;;
3875;SDS011;1953;51.222;6.624;2023-05-07T11:38:48;1.93;;;1.80;;
3875;SDS011;1953;51.222;6.624;2023-05-07T11:43:32;1.60;;;1.50;;
3875;SDS011;1953;51.222;6.624;2023-05-07T11:48:16;2.23;;;2.03;;
3875;SDS011;1953;51.222;6.624;2023-05-07T11:52:58;2.70;;;2.57;;
3875;SDS011;1953;51.222;6.624;2023-05-07T11:57:41;2.77;;;2.57;;
3875;SDS011;1953;51.222;6.624;2023-05-07T12:02:26;3.00;;;2.60;;
3875;SDS011;1953;51.222;6.624;2023-05-07T12:07:11;3.20;;;2.90;;
3875;SDS011;1953;51.222;6.624;2023-05-07T12:12:30;3.50;;;3.30;;
3875;SDS011;1953;51.222;6.624;2023-05-07T12:17:13;5.73;;;2.57;;
3875;SDS011;1953;51.222;6.624;2023-05-07T12:21:57;3.87;;;3.17;;
3875;SDS011;1953;51.222;6.624;2023-05-07T12:26:39;2.90;;;2.70;;
3875;SDS011;1953;51.222;6.624;2023-05-07T12:31:24;2.30;;;2.10;;
3875;SDS011;1953;51.222;6.624;2023-05-07T12:36:08;2.53;;;2.30;;
3875;SDS011;1953;51.222;6.624;2023-05-07T12:40:53;4.30;;;2.27;;
3875;SDS011;1953;51.222;6.624;2023-05-07T12:45:36;2.50;;;2.40;;
3875;SDS011;1953;51.222;6.624;2023-05-07T12:50:22;3.00;;;2.80;;
3875;SDS011;1953;51.222;6.624;2023-05-07T12:55:04;2.90;;;2.70;;
3875;SDS011;1953;51.222;6.624;2023-05-07T12:59:47;3.40;;;2.80;;
3875;SDS011;1953;51.222;6.624;2023-05-07T13:04:30;2.30;;;2.20;;
3875;SDS011;1953;51.222;6.624;2023-05-07T13:09:14;4.33;;;3.07;;
3875;SDS011;1953;51.222;6.624;2023-05-07T13:13:56;2.87;;;2.67;;
3875;SDS011;1953;51.222;6.624;2023-05-07T13:18:40;2.80;;;2.60;;
3875;SDS011;1953;51.222;6.624;2023-05-07T13:23:24;3.07;;;2.30;;
3875;SDS011;1953;51.222;6.624;2023-05-07T13:28:08;3.03;;;2.50;;
3875;SDS011;1953;51.222;6.624;2023-05-07T13:32:51;2.40;;;2.20;;
3875;SDS011;1953;51.222;6.624;2023-05-07T13:37:34;2.60;;;2.40;;
3875;SDS011;1953;51.222;6.624;2023-05-07T13:42:16;4.43;;;2.90;;
3875;SDS011;1953;51.222;6.624;2023-05-07T13:47:01;2.60;;;2.50;;
3875;SDS011;1953;51.222;6.624;2023-05-07T13:51:43;4.13;;;3.30;;
3875;SDS011;1953;51.222;6.624;2023-05-07T13:56:26;5.13;;;3.10;;
3875;SDS011;1953;51.222;6.624;2023-05-07T14:01:11;3.93;;;3.60;;
3875;SDS011;1953;51.222;6.624;2023-05-07T14:05:55;4.43;;;3.20;;
3875;SDS011;1953;51.222;6.624;2023-05-07T14:10:38;3.90;;;3.60;;
3875;SDS011;1953;51.222;6.624;2023-05-07T14:15:21;4.83;;;4.43;;
3875;SDS011;1953;51.222;6.624;2023-05-07T14:20:04;5.50;;;4.93;;
3875;SDS011;1953;51.222;6.624;2023-05-07T14:24:49;5.90;;;5.40;;
3875;SDS011;1953;51.222;6.624;2023-05-07T14:29:32;5.63;;;5.23;;
3875;SDS011;1953;51.222;6.624;2023-05-07T14:34:16;6.10;;;5.57;;
3875;SDS011;1953;51.222;6.624;2023-05-07T14:38:58;6.97;;;5.90;;
3875;SDS011;1953;51.222;6.624;2023-05-07T14:43:43;6.87;;;6.17;;
3875;SDS011;1953;51.222;6.624;2023-05-07T14:48:30;9.80;;;6.80;;
3875;SDS011;1953;51.222;6.624;2023-05-07T14:53:13;7.90;;;7.10;;
3875;SDS011;1953;51.222;6.624;2023-05-07T14:57:56;9.73;;;7.93;;
3875;SDS011;1953;51.222;6.624;2023-05-07T15:02:40;11.13;;;8.63;;
3875;SDS011;1953;51.222;6.624;2023-05-07T15:07:22;14.27;;;8.93;;
3875;SDS011;1953;51.222;6.624;2023-05-07T15:12:05;17.30;;;10.27;;
3875;SDS011;1953;51.222;6.624;2023-05-07T15:16:48;15.20;;;9.13;;
3875;SDS011;1953;51.222;6.624;2023-05-07T15:21:32;13.87;;;9.70;;
3875;SDS011;1953;51.222;6.624;2023-05-07T15:26:16;11.20;;;9.80;;
3875;SDS011;1953;51.222;6.624;2023-05-07T15:30:58;10.47;;;8.53;;
3875;SDS011;1953;51.222;6.624;2023-05-07T15:35:41;8.43;;;7.50;;
3875;SDS011;1953;51.222;6.624;2023-05-07T15:40:25;10.97;;;8.40;;
3875;SDS011;1953;51.222;6.624;2023-05-07T15:45:08;8.73;;;7.57;;
3875;SDS011;1953;51.222;6.624;2023-05-07T15:49:51;9.80;;;7.97;;
3875;SDS011;1953;51.222;6.624;2023-05-07T15:54:34;10.90;;;9.10;;
3875;SDS011;1953;51.222;6.624;2023-05-07T15:59:19;11.93;;;9.57;;
3875;SDS011;1953;51.222;6.624;2023-05-07T16:04:02;14.67;;;9.83;;
3875;SDS011;1953;51.222;6.624;2023-05-07T16:08:45;11.10;;;9.13;;
3875;SDS011;1953;51.222;6.624;2023-05-07T16:13:27;10.13;;;7.60;;
3875;SDS011;1953;51.222;6.624;2023-05-07T16:18:11;10.30;;;6.97;;
3875;SDS011;1953;51.222;6.624;2023-05-07T16:22:55;6.37;;;5.80;;
3875;SDS011;1953;51.222;6.624;2023-05-07T16:27:38;7.20;;;6.50;;
3875;SDS011;1953;51.222;6.624;2023-05-07T16:32:21;7.10;;;6.20;;
3875;SDS011;1953;51.222;6.624;2023-05-07T16:37:05;6.67;;;6.03;;
3875;SDS011;1953;51.222;6.624;2023-05-07T16:41:47;6.30;;;5.70;;
3875;SDS011;1953;51.222;6.624;2023-05-07T16:46:30;5.97;;;5.47;;
3875;SDS011;1953;51.222;6.624;2023-05-07T16:51:13;5.93;;;5.43;;
3875;SDS011;1953;51.222;6.624;2023-05-07T16:55:57;7.13;;;6.30;;
3875;SDS011;1953;51.222;6.624;2023-05-07T17:00:39;10.10;;;9.10;;
3875;SDS011;1953;51.222;6.624;2023-05-07T17:05:22;13.77;;;9.80;;
3875;SDS011;1953;51.222;6.624;2023-05-07T17:10:05;12.23;;;10.90;;
3875;SDS011;1953;51.222;6.624;2023-05-07T17:14:49;11.17;;;9.97;;
3875;SDS011;1953;51.222;6.624;2023-05-07T17:19:32;13.00;;;11.70;;
3875;SDS011;1953;51.222;6.624;2023-05-07T17:24:18;16.40;;;11.37;;
3875;SDS011;1953;51.222;6.624;2023-05-07T17:29:00;13.90;;;12.47;;
3875;SDS011;1953;51.222;6.624;2023-05-07T17:33:44;14.13;;;11.33;;
3875;SDS011;1953;51.222;6.624;2023-05-07T17:38:27;14.73;;;11.50;;
3875;SDS011;1953;51.222;6.624;2023-05-07T17:43:10;12.87;;;11.50;;
3875;SDS011;1953;51.222;6.624;2023-05-07T17:47:52;17.53;;;12.00;;
3875;SDS011;1953;51.222;6.624;2023-05-07T17:52:37;13.90;;;11.70;;
3875;SDS011;1953;51.222;6.624;2023-05-07T17:57:21;13.60;;;12.20;;
3875;SDS011;1953;51.222;6.624;2023-05-07T18:02:03;17.80;;;13.40;;
3875;SDS011;1953;51.222;6.624;2023-05-07T18:06:46;14.30;;;12.80;;
3875;SDS011;1953;51.222;6.624;2023-05-07T18:11:30;14.20;;;12.70;;
3875;SDS011;1953;51.222;6.624;2023-05-07T18:16:13;18.50;;;14.27;;
3875;SDS011;1953;51.222;6.624;2023-05-07T18:20:55;17.97;;;13.60;;
3875;SDS011;1953;51.222;6.624;2023-05-07T18:25:38;17.40;;;12.90;;
3875;SDS011;1953;51.222;6.624;2023-05-07T18:30:22;13.13;;;11.83;;
3875;SDS011;1953;51.222;6.624;2023-05-07T18:35:05;13.80;;;11.83;;
3875;SDS011;1953;51.222;6.624;2023-05-07T18:39:48;14.00;;;11.40;;
3875;SDS011;1953;51.222;6.624;2023-05-07T18:44:30;12.83;;;11.20;;
3875;SDS011;1953;51.222;6.624;2023-05-07T18:49:18;12.60;;;11.27;;
3875;SDS011;1953;51.222;6.624;2023-05-07T18:54:01;11.93;;;10.20;;
3875;SDS011;1953;51.222;6.624;2023-05-07T18:58:44;13.70;;;11.73;;
3875;SDS011;1953;51.222;6.624;2023-05-07T19:03:26;13.43;;;11.10;;
3875;SDS011;1953;51.222;6.624;2023-05-07T19:08:10;13.80;;;11.50;;
3875;SDS011;1953;51.222;6.624;2023-05-07T19:12:53;15.53;;;12.17;;
3875;SDS011;1953;51.222;6.624;2023-05-07T19:17:37;15.57;;;13.00;;
3875;SDS011;1953;51.222;6.624;2023-05-07T19:22:19;15.10;;;12.77;;
3875;SDS011;1953;51.222;6.624;2023-05-07T19:27:03;14.90;;;13.30;;
3875;SDS011;1953;51.222;6.624;2023-05-07T19:31:46;18.20;;;14.50;;
3875;SDS011;1953;51.222;6.624;2023-05-07T19:36:28;19.33;;;14.57;;
3875;SDS011;1953;51.222;6.624;2023-05-07T19:41:13;20.47;;;15.50;;
3875;SDS011;1953;51.222;6.624;2023-05-07T19:45:56;22.90;;;15.87;;
3875;SDS011;1953;51.222;6.624;2023-05-07T19:50:39;21.30;;;16.87;;
3875;SDS011;1953;51.222;6.624;2023-05-07T19:55:21;17.30;;;14.67;;
3875;SDS011;1953;51.222;6.624;2023-05-07T20:00:05;20.17;;;16.70;;
3875;SDS011;1953;51.222;6.624;2023-05-07T20:04:49;20.80;;;17.03;;
3875;SDS011;1953;51.222;6.624;2023-05-07T20:09:32;19.60;;;14.97;;
3875;SDS011;1953;51.222;6.624;2023-05-07T20:14:14;21.10;;;17.00;;
3875;SDS011;1953;51.222;6.624;2023-05-07T20:18:57;22.50;;;17.23;;
3875;SDS011;1953;51.222;6.624;2023-05-07T20:23:41;26.20;;;18.13;;
3875;SDS011;1953;51.222;6.624;2023-05-07T20:28:24;23.70;;;17.33;;
3875;SDS011;1953;51.222;6.624;2023-05-07T20:33:06;24.20;;;19.33;;
3875;SDS011;1953;51.222;6.624;2023-05-07T20:37:49;24.13;;;18.90;;
3875;SDS011;1953;51.222;6.624;2023-05-07T20:42:33;20.20;;;17.27;;
3875;SDS011;1953;51.222;6.624;2023-05-07T20:47:16;24.80;;;18.30;;
3875;SDS011;1953;51.222;6.624;2023-05-07T20:51:58;23.47;;;19.53;;
3875;SDS011;1953;51.222;6.624;2023-05-07T20:56:41;25.10;;;19.00;;
3875;SDS011;1953;51.222;6.624;2023-05-07T21:01:25;23.33;;;18.43;;
3875;SDS011;1953;51.222;6.624;2023-05-07T21:06:07;22.60;;;18.60;;
3875;SDS011;1953;51.222;6.624;2023-05-07T21:10:50;25.73;;;21.20;;
3875;SDS011;1953;51.222;6.624;2023-05-07T21:15:34;26.53;;;19.97;;
3875;SDS011;1953;51.222;6.624;2023-05-07T21:20:17;27.77;;;21.40;;
3875;SDS011;1953;51.222;6.624;2023-05-07T21:25:00;34.00;;;21.47;;
3875;SDS011;1953;51.222;6.624;2023-05-07T21:29:43;24.90;;;20.70;;
3875;SDS011;1953;51.222;6.624;2023-05-07T21:34:25;27.77;;;21.17;;
3875;SDS011;1953;51.222;6.624;2023-05-07T21:39:09;31.00;;;20.20;;
3875;SDS011;1953;51.222;6.624;2023-05-07T21:43:52;26.27;;;20.07;;
3875;SDS011;1953;51.222;6.624;2023-05-07T21:48:35;25.67;;;20.27;;
3875;SDS011;1953;51.222;6.624;2023-05-07T21:53:17;25.90;;;20.03;;
3875;SDS011;1953;51.222;6.624;2023-05-07T21:58:01;24.40;;;19.30;;
3875;SDS011;1953;51.222;6.624;2023-05-07T22:02:44;25.60;;;19.60;;
3875;SDS011;1953;51.222;6.624;2023-05-07T22:07:26;22.67;;;17.57;;
3875;SDS011;1953;51.222;6.624;2023-05-07T22:12:09;21.07;;;17.00;;
3875;SDS011;1953;51.222;6.624;2023-05-07T22:16:53;22.30;;;17.00;;
3875;SDS011;1953;51.222;6.624;2023-05-07T22:21:36;21.47;;;17.03;;
3875;SDS011;1953;51.222;6.624;2023-05-07T22:26:18;18.40;;;16.00;;
3875;SDS011;1953;51.222;6.624;2023-05-07T22:31:01;19.47;;;16.30;;
3875;SDS011;1953;51.222;6.624;2023-05-07T22:35:45;22.20;;;16.80;;
3875;SDS011;1953;51.222;6.624;2023-05-07T22:40:28;19.50;;;17.37;;
3875;SDS011;1953;51.222;6.624;2023-05-07T22:45:10;20.60;;;17.67;;
3875;SDS011;1953;51.222;6.624;2023-05-07T22:49:53;25.53;;;18.77;;
3875;SDS011;1953;51.222;6.624;2023-05-07T22:54:37;20.53;;;18.30;;
3875;SDS011;1953;51.222;6.624;2023-05-07T22:59:19;21.03;;;17.43;;
3875;SDS011;1953;51.222;6.624;2023-05-07T23:04:02;21.73;;;18.00;;
3875;SDS011;1953;51.222;6.624;2023-05-07T23:08:44;22.43;;;18.57;;
3875;SDS011;1953;51.222;6.624;2023-05-07T23:13:28;22.90;;;18.90;;
3875;SDS011;1953;51.222;6.624;2023-05-07T23:18:10;25.27;;;18.90;;
3875;SDS011;1953;51.222;6.624;2023-05-07T23:22:53;24.87;;;20.00;;
3875;SDS011;1953;51.222;6.624;2023-05-07T23:27:36;32.03;;;20.90;;
3875;SDS011;1953;51.222;6.624;2023-05-07T23:32:20;25.60;;;19.33;;
3875;SDS011;1953;51.222;6.624;2023-05-07T23:37:02;25.03;;;18.67;;
3875;SDS011;1953;51.222;6.624;2023-05-07T23:41:45;26.57;;;20.67;;
3875;SDS011;1953;51.222;6.624;2023-05-07T23:46:27;24.47;;;20.60;;
3875;SDS011;1953;51.222;6.624;2023-05-07T23:51:11;25.37;;;20.57;;
3875;SDS011;1953;51.222;6.624;2023-05-07T23:55:54;25.17;;;20.73;;
